createdAt,value
2018-07-12T00:00:38.987Z,96.40
2018-07-12T00:03:06.690Z,96.30
2018-07-12T00:05:39.068Z,96.20
2018-07-12T00:08:10.349Z,96.10
2018-07-12T00:13:18.994Z,95.90
2018-07-12T00:15:46.708Z,95.90
2018-07-12T00:18:24.463Z,95.90
2018-07-12T00:20:52.104Z,95.90
2018-07-12T00:23:19.768Z,95.80
2018-07-12T00:25:47.449Z,95.90
2018-07-12T00:28:15.108Z,95.80
2018-07-12T00:30:42.786Z,95.90
2018-07-12T00:33:18.270Z,95.90
2018-07-12T00:35:45.983Z,96.00
2018-07-12T00:38:13.749Z,96.10
2018-07-12T00:40:45.558Z,96.10
2018-07-12T00:43:16.669Z,96.10
2018-07-12T00:45:47.254Z,96.10
2018-07-12T00:48:20.094Z,96.20
2018-07-12T00:50:49.985Z,96.30
2018-07-12T00:55:59.794Z,96.10
2018-07-12T00:58:33.388Z,96.10
2018-07-12T01:01:05.959Z,96.10
2018-07-12T01:03:36.945Z,96.00
2018-07-12T01:06:04.600Z,96.10
2018-07-12T01:08:32.310Z,96.10
2018-07-12T01:11:06.938Z,96.10
2018-07-12T01:13:39.341Z,96.20
2018-07-12T01:16:15.894Z,96.20
2018-07-12T01:18:47.871Z,96.20
2018-07-12T01:21:19.861Z,96.20
2018-07-12T01:23:52.701Z,96.20
2018-07-12T01:26:20.599Z,96.30
2018-07-12T01:28:48.245Z,96.50
2018-07-12T01:31:19.988Z,96.50
2018-07-12T01:33:47.782Z,96.50
2018-07-12T01:36:15.457Z,96.50
2018-07-12T01:38:50.725Z,96.60
2018-07-12T01:41:21.569Z,96.60
2018-07-12T01:43:49.204Z,96.70
2018-07-12T01:46:24.778Z,96.80
2018-07-12T01:48:52.579Z,96.70
2018-07-12T01:51:20.184Z,96.80
2018-07-12T01:53:59.620Z,96.80
2018-07-12T01:56:28.610Z,96.80
2018-07-12T02:01:31.864Z,96.80
2018-07-12T02:03:59.495Z,97.00
2018-07-12T02:06:36.828Z,97.00
2018-07-12T02:09:05.049Z,97.20
2018-07-12T02:11:32.703Z,97.20
2018-07-12T02:16:46.119Z,97.20
2018-07-12T02:19:13.799Z,97.10
2018-07-12T02:21:41.358Z,97.20
2018-07-12T02:24:08.993Z,97.00
2018-07-12T02:26:45.097Z,97.00
2018-07-12T02:29:14.676Z,97.00
2018-07-12T02:31:51.383Z,97.00
2018-07-12T02:34:31.614Z,97.10
2018-07-12T02:37:00.584Z,97.20
2018-07-12T02:39:28.357Z,97.20
2018-07-12T02:42:02.193Z,97.20
2018-07-12T02:44:29.914Z,97.20
2018-07-12T02:46:57.541Z,97.20
2018-07-12T02:49:25.176Z,97.10
2018-07-12T02:52:02.773Z,97.20
2018-07-12T02:54:37.430Z,97.20
2018-07-12T02:57:05.000Z,97.20
2018-07-12T02:59:32.676Z,97.20
2018-07-12T03:02:07.682Z,97.50
2018-07-12T03:04:35.387Z,97.30
2018-07-12T03:07:03.059Z,97.40
2018-07-12T03:09:42.514Z,97.60
2018-07-12T03:12:10.078Z,97.30
2018-07-12T03:14:37.763Z,97.40
2018-07-12T03:17:10.184Z,97.40
2018-07-12T03:19:45.070Z,97.40
2018-07-12T03:24:46.425Z,97.40
2018-07-12T03:27:14.024Z,97.40
2018-07-12T03:29:41.641Z,97.40
2018-07-12T03:32:22.788Z,97.40
2018-07-12T03:34:51.869Z,97.40
2018-07-12T03:37:19.481Z,97.40
2018-07-12T03:39:58.170Z,97.30
2018-07-12T03:42:25.772Z,97.30
2018-07-12T03:44:53.375Z,97.20
2018-07-12T03:47:20.935Z,97.20
2018-07-12T03:49:54.073Z,97.20
2018-07-12T03:52:26.373Z,97.30
2018-07-12T03:55:00.036Z,97.40
2018-07-12T03:57:27.864Z,97.40
2018-07-12T03:59:55.542Z,97.30
2018-07-12T04:02:27.566Z,97.20
2018-07-12T04:04:55.729Z,97.20
2018-07-12T04:07:23.621Z,97.10
2018-07-12T04:09:51.590Z,97.00
2018-07-12T04:12:26.237Z,97.00
2018-07-12T04:14:53.981Z,96.80
2018-07-12T04:17:27.854Z,96.80
2018-07-12T04:19:55.894Z,96.60
2018-07-12T04:22:33.476Z,96.40
2018-07-12T04:25:11.073Z,96.20
2018-07-12T04:27:40.041Z,96.30
2018-07-12T04:30:14.780Z,96.20
2018-07-12T04:32:48.743Z,96.20
2018-07-12T04:35:18.997Z,96.20
2018-07-12T04:37:46.633Z,96.30
2018-07-12T04:40:14.298Z,96.30
2018-07-12T04:42:41.898Z,96.30
2018-07-12T04:45:09.539Z,96.20
2018-07-12T04:47:40.743Z,96.30
2018-07-12T04:50:14.105Z,96.20
2018-07-12T04:52:42.640Z,96.20
2018-07-12T04:55:10.274Z,96.20
2018-07-12T04:57:37.862Z,96.00
2018-07-12T05:00:05.553Z,95.80
2018-07-12T05:02:33.192Z,95.70
2018-07-12T05:05:00.894Z,95.70
2018-07-12T05:07:28.496Z,95.70
2018-07-12T05:09:56.198Z,95.70
2018-07-12T05:12:23.852Z,95.60
2018-07-12T05:14:51.713Z,95.40
2018-07-12T05:17:19.528Z,95.50
2018-07-12T05:19:48.777Z,95.30
2018-07-12T05:22:16.588Z,95.60
2018-07-12T05:24:44.269Z,95.20
2018-07-12T05:27:12.012Z,95.20
2018-07-12T05:29:39.778Z,95.20
2018-07-12T05:32:09.115Z,95.00
2018-07-12T05:34:36.912Z,95.10
2018-07-12T05:37:06.336Z,95.00
2018-07-12T05:39:35.532Z,94.70
2018-07-12T05:42:04.772Z,94.60
2018-07-12T05:44:34.036Z,94.30
2018-07-12T05:47:03.318Z,93.80
2018-07-12T05:49:38.411Z,93.90
2018-07-12T05:52:07.882Z,94.00
2018-07-12T05:54:37.183Z,94.00
2018-07-12T05:57:06.305Z,94.00
2018-07-12T05:59:35.751Z,93.80
2018-07-12T06:02:14.599Z,93.90
2018-07-12T06:04:43.770Z,94.10
2018-07-12T06:07:12.879Z,94.10
2018-07-12T06:09:42.121Z,94.20
2018-07-12T06:12:11.255Z,94.10
2018-07-12T06:14:40.638Z,93.90
2018-07-12T06:17:09.816Z,94.00
2018-07-12T06:19:39.178Z,93.70
2018-07-12T06:22:08.408Z,93.60
2018-07-12T06:24:37.795Z,93.50
2018-07-12T06:27:07.124Z,93.40
2018-07-12T06:29:36.561Z,93.50
2018-07-12T06:32:06.601Z,93.20
2018-07-12T06:34:35.980Z,93.10
2018-07-12T06:37:06.265Z,92.80
2018-07-12T06:39:35.575Z,92.40
2018-07-12T06:42:04.844Z,92.10
2018-07-12T06:44:34.156Z,91.90
2018-07-12T06:47:03.687Z,91.90
2018-07-12T06:49:33.315Z,91.80
2018-07-12T06:52:02.610Z,91.70
2018-07-12T06:54:32.102Z,91.60
2018-07-12T06:57:01.689Z,91.70
2018-07-12T06:59:31.239Z,91.50
2018-07-12T07:02:00.902Z,91.10
2018-07-12T07:04:30.458Z,90.60
2018-07-12T07:06:59.832Z,90.50
2018-07-12T07:09:29.482Z,90.60
2018-07-12T07:11:59.097Z,90.60
2018-07-12T07:14:28.873Z,90.80
2018-07-12T07:16:58.396Z,90.50
2018-07-12T07:19:27.843Z,90.20
2018-07-12T07:21:57.251Z,89.10
2018-07-12T07:24:26.858Z,88.90
2018-07-12T07:26:56.428Z,88.10
2018-07-12T07:29:25.940Z,87.90
2018-07-12T07:31:55.883Z,86.50
2018-07-12T07:34:26.351Z,87.00
2018-07-12T07:36:55.755Z,87.00
2018-07-12T07:39:26.143Z,87.60
2018-07-12T07:41:57.175Z,87.40
2018-07-12T07:44:28.528Z,87.20
2018-07-12T07:46:57.704Z,88.00
2018-07-12T07:49:26.791Z,89.10
2018-07-12T07:51:58.547Z,89.40
2018-07-12T07:54:31.310Z,90.00
2018-07-12T07:57:00.466Z,90.30
2018-07-12T07:59:29.449Z,90.30
2018-07-12T08:01:58.731Z,90.00
2018-07-12T08:04:27.780Z,89.10
2018-07-12T08:06:56.802Z,89.50
2018-07-12T08:09:26.024Z,89.30
2018-07-12T08:11:55.382Z,88.70
2018-07-12T08:14:29.405Z,87.20
2018-07-12T08:17:02.577Z,86.20
2018-07-12T08:19:31.763Z,85.60
2018-07-12T08:22:09.848Z,87.30
2018-07-12T08:24:38.839Z,86.40
2018-07-12T08:27:08.883Z,85.50
2018-07-12T08:29:37.983Z,84.60
2018-07-12T08:32:07.199Z,83.20
2018-07-12T08:34:36.307Z,82.30
2018-07-12T08:37:07.354Z,81.80
2018-07-12T08:39:36.948Z,82.30
2018-07-12T08:42:06.020Z,82.30
2018-07-12T08:44:35.240Z,81.90
2018-07-12T08:47:04.389Z,81.30
2018-07-12T08:49:33.600Z,81.20
2018-07-12T08:52:02.849Z,80.90
2018-07-12T08:54:32.046Z,81.20
2018-07-12T08:57:01.163Z,80.60
2018-07-12T08:59:30.220Z,80.70
2018-07-12T09:01:59.198Z,80.20
2018-07-12T09:04:35.434Z,79.70
2018-07-12T09:07:11.532Z,79.00
2018-07-12T09:09:47.925Z,79.00
2018-07-12T09:12:21.351Z,77.70
2018-07-12T09:14:55.226Z,76.80
2018-07-12T09:17:24.342Z,77.10
2018-07-12T09:19:53.671Z,77.60
2018-07-12T09:22:23.168Z,76.80
2018-07-12T09:24:52.294Z,76.70
2018-07-12T09:27:21.527Z,76.70
2018-07-12T09:29:50.535Z,77.00
2018-07-12T09:32:19.927Z,76.70
2018-07-12T09:34:48.983Z,77.30
2018-07-12T09:37:19.021Z,78.40
2018-07-12T09:39:48.176Z,78.60
2018-07-12T09:42:17.337Z,77.30
2018-07-12T09:44:46.416Z,77.20
2018-07-12T09:47:16.854Z,77.00
2018-07-12T09:49:46.409Z,77.70
2018-07-12T09:52:21.165Z,76.90
2018-07-12T09:54:50.846Z,76.80
2018-07-12T09:57:31.038Z,77.70
2018-07-12T10:00:00.646Z,76.70
2018-07-12T10:02:35.523Z,77.40
2018-07-12T10:05:05.423Z,77.20
2018-07-12T10:07:41.894Z,78.80
2018-07-12T10:10:11.915Z,78.40
2018-07-12T10:12:46.525Z,79.20
2018-07-12T10:15:20.452Z,79.30
2018-07-12T10:17:56.031Z,76.10
2018-07-12T10:20:25.780Z,75.30
2018-07-12T10:22:56.074Z,74.60
2018-07-12T10:25:25.564Z,70.30
2018-07-12T10:27:55.444Z,71.10
2018-07-12T10:30:25.110Z,69.20
2018-07-12T10:32:55.183Z,66.90
2018-07-12T10:35:24.751Z,64.50
2018-07-12T10:37:54.450Z,64.10
2018-07-12T10:40:30.577Z,62.40
2018-07-12T10:43:00.168Z,61.00
2018-07-12T10:45:31.815Z,62.60
2018-07-12T10:48:01.642Z,63.30
2018-07-12T10:50:43.750Z,65.20
2018-07-12T10:53:13.851Z,67.00
2018-07-12T10:55:43.472Z,68.40
2018-07-12T10:58:13.111Z,67.10
2018-07-12T11:00:42.770Z,66.40
2018-07-12T11:03:12.373Z,65.50
2018-07-12T11:05:41.990Z,64.10
2018-07-12T11:08:12.310Z,66.40
2018-07-12T11:10:42.023Z,65.20
2018-07-12T11:13:15.921Z,66.50
2018-07-12T11:15:46.717Z,66.80
2018-07-12T11:18:17.116Z,67.60
2018-07-12T11:20:46.850Z,66.20
2018-07-12T11:23:16.390Z,66.70
2018-07-12T11:25:46.010Z,66.60
2018-07-12T11:28:15.867Z,65.80
2018-07-12T11:30:45.385Z,65.60
2018-07-12T11:33:51.030Z,64.10
2018-07-12T11:36:20.723Z,64.00
2018-07-12T11:38:50.490Z,64.00
2018-07-12T11:41:20.081Z,62.70
2018-07-12T11:43:49.890Z,61.90
2018-07-12T11:46:19.518Z,60.80
2018-07-12T11:48:48.981Z,58.80
2018-07-12T11:51:18.524Z,57.90
2018-07-12T11:53:48.058Z,58.10
2018-07-12T11:56:17.619Z,57.80
2018-07-12T11:58:47.383Z,58.50
2018-07-12T12:01:16.967Z,58.90
2018-07-12T12:03:46.553Z,59.60
2018-07-12T12:06:16.059Z,59.80
2018-07-12T12:08:45.634Z,60.40
2018-07-12T12:11:15.198Z,60.80
2018-07-12T12:13:45.275Z,59.00
2018-07-12T12:16:14.851Z,58.80
2018-07-12T12:18:44.473Z,56.80
2018-07-12T12:21:13.932Z,56.50
2018-07-12T12:23:43.574Z,57.20
2018-07-12T12:26:12.948Z,57.20
2018-07-12T12:28:42.577Z,57.80
2018-07-12T12:31:12.012Z,58.50
2018-07-12T12:33:41.570Z,57.40
2018-07-12T12:36:10.926Z,55.50
2018-07-12T12:38:40.534Z,54.20
2018-07-12T12:41:09.940Z,53.50
2018-07-12T12:43:39.240Z,52.70
2018-07-12T12:46:08.822Z,51.30
2018-07-12T12:48:38.374Z,50.80
2018-07-12T12:51:07.884Z,51.30
2018-07-12T12:53:37.350Z,51.20
2018-07-12T12:56:06.690Z,50.50
2018-07-12T12:58:36.059Z,49.90
2018-07-12T13:01:05.496Z,49.10
2018-07-12T13:03:34.870Z,49.90
2018-07-12T13:06:04.553Z,48.40
2018-07-12T13:08:34.134Z,47.20
2018-07-12T13:11:03.751Z,46.20
2018-07-12T13:13:33.297Z,47.30
2018-07-12T13:16:02.721Z,46.90
2018-07-12T13:18:32.262Z,46.00
2018-07-12T13:21:01.812Z,44.80
2018-07-12T13:23:31.405Z,44.90
2018-07-12T13:26:00.911Z,46.40
2018-07-12T13:28:33.242Z,45.60
2018-07-12T13:31:02.636Z,45.30
2018-07-12T13:33:32.281Z,46.50
2018-07-12T13:36:03.167Z,48.80
2018-07-12T13:38:32.628Z,49.40
2018-07-12T13:41:01.953Z,50.60
2018-07-12T13:43:31.424Z,49.40
2018-07-12T13:46:00.810Z,48.00
2018-07-12T13:48:30.191Z,46.20
2018-07-12T13:50:59.640Z,44.80
2018-07-12T13:53:29.049Z,42.80
2018-07-12T13:55:58.432Z,42.00
2018-07-12T13:58:27.687Z,41.20
2018-07-12T14:00:57.272Z,38.90
2018-07-12T14:03:26.683Z,39.00
2018-07-12T14:05:56.501Z,37.50
2018-07-12T14:08:25.888Z,36.00
2018-07-12T14:10:55.552Z,36.40
2018-07-12T14:13:25.048Z,36.20
2018-07-12T14:15:54.678Z,35.30
2018-07-12T14:18:24.322Z,35.30
2018-07-12T14:20:53.841Z,36.40
2018-07-12T14:23:23.163Z,36.40
2018-07-12T14:25:52.600Z,35.90
2018-07-12T14:28:22.115Z,35.80
2018-07-12T14:30:51.581Z,35.80
2018-07-12T14:33:21.038Z,37.10
2018-07-12T14:35:50.560Z,39.00
2018-07-12T14:38:20.073Z,40.90
2018-07-12T14:40:49.541Z,40.00
2018-07-12T14:43:18.955Z,38.50
2018-07-12T14:45:48.516Z,39.30
2018-07-12T14:48:17.943Z,40.90
2018-07-12T14:50:47.567Z,43.00
2018-07-12T14:53:17.024Z,43.40
2018-07-12T14:55:46.432Z,44.00
2018-07-12T14:58:17.689Z,44.10
2018-07-12T15:00:47.406Z,45.10
2018-07-12T15:03:16.889Z,46.60
2018-07-12T15:05:46.401Z,48.00
2018-07-12T15:08:16.028Z,48.10
2018-07-12T15:10:45.556Z,47.30
2018-07-12T15:13:15.073Z,47.50
2018-07-12T15:15:45.490Z,47.60
2018-07-12T15:18:15.132Z,47.80
2018-07-12T15:20:44.597Z,48.80
2018-07-12T15:23:14.123Z,49.30
2018-07-12T15:25:43.603Z,49.60
2018-07-12T15:28:12.911Z,50.00
2018-07-12T15:30:42.397Z,50.80
2018-07-12T15:33:11.714Z,51.40
2018-07-12T15:35:41.146Z,52.10
2018-07-12T15:38:10.372Z,51.60
2018-07-12T15:40:40.033Z,51.60
2018-07-12T15:43:09.562Z,51.20
2018-07-12T15:45:39.084Z,50.10
2018-07-12T15:48:08.569Z,48.30
2018-07-12T15:50:37.916Z,45.70
2018-07-12T15:53:07.284Z,44.50
2018-07-12T15:55:36.810Z,44.50
2018-07-12T15:58:06.310Z,45.10
2018-07-12T16:00:35.798Z,45.60
2018-07-12T16:03:05.486Z,47.00
2018-07-12T16:05:35.146Z,48.20
2018-07-12T16:08:04.524Z,48.10
2018-07-12T16:10:34.089Z,47.90
2018-07-12T16:13:03.301Z,48.10
2018-07-12T16:15:32.766Z,48.60
2018-07-12T16:18:02.168Z,49.90
2018-07-12T16:20:31.700Z,46.80
2018-07-12T16:23:00.963Z,46.20
2018-07-12T16:25:30.106Z,45.80
2018-07-12T16:27:59.348Z,44.40
2018-07-12T16:30:28.512Z,42.50
2018-07-12T16:32:57.625Z,39.40
2018-07-12T16:35:26.801Z,38.30
2018-07-12T16:37:55.999Z,37.30
2018-07-12T16:40:25.226Z,36.90
2018-07-12T16:42:54.572Z,37.30
2018-07-12T16:45:23.668Z,36.20
2018-07-12T16:47:53.046Z,36.70
2018-07-12T16:50:22.355Z,38.10
2018-07-12T16:52:51.473Z,40.50
2018-07-12T16:55:20.847Z,42.30
2018-07-12T16:57:50.000Z,43.40
2018-07-12T17:00:20.091Z,46.20
2018-07-12T17:02:50.122Z,45.50
2018-07-12T17:05:19.247Z,45.40
2018-07-12T17:07:48.543Z,46.60
2018-07-12T17:10:17.700Z,47.60
2018-07-12T17:12:47.173Z,47.70
2018-07-12T17:15:16.303Z,48.30
2018-07-12T17:17:45.410Z,48.70
2018-07-12T17:20:14.671Z,49.10
2018-07-12T17:22:43.918Z,49.00
2018-07-12T17:25:13.023Z,48.70
2018-07-12T17:27:42.163Z,48.90
2018-07-12T17:30:11.355Z,49.60
2018-07-12T17:32:40.738Z,50.10
2018-07-12T17:35:09.831Z,50.20
2018-07-12T17:37:39.021Z,50.20
2018-07-12T17:40:08.077Z,49.80
2018-07-12T17:42:37.210Z,49.00
2018-07-12T17:45:06.419Z,49.30
2018-07-12T17:47:35.599Z,49.50
2018-07-12T17:50:05.101Z,49.70
2018-07-12T17:52:34.245Z,50.90
2018-07-12T17:55:03.392Z,51.50
2018-07-12T17:57:32.617Z,51.80
2018-07-12T18:00:01.732Z,53.30
2018-07-12T18:02:30.872Z,54.30
2018-07-12T18:04:59.990Z,54.30
2018-07-12T18:07:29.197Z,54.50
2018-07-12T18:09:58.307Z,55.00
2018-07-12T18:12:27.466Z,55.00
2018-07-12T18:14:56.591Z,55.70
2018-07-12T18:17:25.648Z,56.80
2018-07-12T18:19:57.918Z,56.60
2018-07-12T18:22:27.051Z,56.90
2018-07-12T18:24:56.159Z,57.40
2018-07-12T18:27:26.159Z,57.20
2018-07-12T18:29:55.300Z,57.50
2018-07-12T18:32:24.451Z,57.20
2018-07-12T18:34:53.611Z,56.90
2018-07-12T18:37:22.789Z,57.30
2018-07-12T18:39:51.878Z,57.50
2018-07-12T18:42:21.072Z,57.90
2018-07-12T18:44:50.150Z,58.30
2018-07-12T18:47:19.280Z,58.40
2018-07-12T18:49:48.366Z,60.90
2018-07-12T18:52:17.562Z,61.60
2018-07-12T18:54:46.713Z,62.50
2018-07-12T18:57:15.976Z,63.30
2018-07-12T18:59:44.956Z,64.30
2018-07-12T19:02:14.099Z,60.70
2018-07-12T19:04:43.235Z,61.50
2018-07-12T19:07:12.293Z,63.60
2018-07-12T19:09:42.566Z,59.90
2018-07-12T19:12:11.785Z,58.90
2018-07-12T19:14:40.945Z,59.00
2018-07-12T19:17:10.055Z,58.20
2018-07-12T19:19:39.094Z,59.60
2018-07-12T19:22:08.210Z,59.00
2018-07-12T19:24:37.399Z,58.30
2018-07-12T19:27:06.492Z,58.40
2018-07-12T19:29:35.754Z,58.00
2018-07-12T19:32:04.878Z,57.80
2018-07-12T19:34:34.154Z,57.60
2018-07-12T19:37:03.278Z,57.10
2018-07-12T19:39:32.436Z,57.90
2018-07-12T19:42:01.564Z,57.40
2018-07-12T19:44:30.735Z,57.40
2018-07-12T19:46:59.913Z,57.50
2018-07-12T19:49:29.016Z,57.50
2018-07-12T19:51:57.982Z,57.60
2018-07-12T19:54:28.453Z,57.70
2018-07-12T19:56:58.510Z,57.80
2018-07-12T19:59:27.679Z,57.70
2018-07-12T20:01:56.759Z,57.90
2018-07-12T20:04:25.732Z,58.00
2018-07-12T20:06:54.831Z,58.10
2018-07-12T20:09:23.946Z,58.30
2018-07-12T20:11:52.998Z,58.60
2018-07-12T20:14:22.197Z,58.90
2018-07-12T20:16:51.259Z,60.10
2018-07-12T20:19:20.304Z,61.40
2018-07-12T20:21:49.540Z,62.90
2018-07-12T20:24:20.075Z,65.10
2018-07-12T20:26:49.179Z,62.50
2018-07-12T20:29:18.399Z,62.90
2018-07-12T20:31:47.431Z,63.70
2018-07-12T20:34:16.706Z,64.10
2018-07-12T20:36:45.942Z,65.50
2018-07-12T20:39:15.068Z,65.40
2018-07-12T20:41:44.171Z,65.70
2018-07-12T20:44:13.371Z,65.30
2018-07-12T20:46:42.334Z,64.90
2018-07-12T20:49:11.489Z,65.40
2018-07-12T20:51:40.618Z,65.20
2018-07-12T20:54:09.764Z,65.30
2018-07-12T20:56:38.854Z,65.80
2018-07-12T20:59:08.127Z,66.30
2018-07-12T21:01:37.245Z,66.60
2018-07-12T21:04:06.425Z,67.20
2018-07-12T21:06:35.552Z,67.90
2018-07-12T21:09:11.503Z,68.60
2018-07-12T21:11:41.541Z,69.50
2018-07-12T21:14:10.838Z,70.10
2018-07-12T21:16:39.895Z,70.70
2018-07-12T21:19:09.080Z,71.50
2018-07-12T21:21:38.262Z,72.50
2018-07-12T21:24:07.476Z,72.90
2018-07-12T21:26:36.385Z,73.60
2018-07-12T21:29:05.347Z,73.70
2018-07-12T21:31:40.958Z,74.20
2018-07-12T21:34:10.100Z,74.40
2018-07-12T21:36:39.198Z,74.70
2018-07-12T21:39:10.072Z,75.60
2018-07-12T21:41:39.422Z,75.40
2018-07-12T21:44:08.581Z,75.70
2018-07-12T21:46:37.702Z,76.80
2018-07-12T21:49:06.820Z,76.20
2018-07-12T21:51:35.998Z,76.70
2018-07-12T21:54:05.212Z,77.20
2018-07-12T21:56:34.310Z,77.60
2018-07-12T21:59:03.580Z,77.50
2018-07-12T22:01:32.720Z,77.80
2018-07-12T22:04:01.780Z,78.20
2018-07-12T22:06:41.791Z,78.50
2018-07-12T22:09:10.924Z,79.40
2018-07-12T22:11:39.899Z,79.70
2018-07-12T22:14:09.040Z,79.80
2018-07-12T22:16:38.078Z,80.30
2018-07-12T22:19:07.236Z,80.70
2018-07-12T22:21:37.191Z,81.30
2018-07-12T22:24:06.329Z,81.40
2018-07-12T22:26:35.360Z,81.80
2018-07-12T22:29:04.418Z,82.20
2018-07-12T22:31:33.584Z,82.70
2018-07-12T22:34:02.615Z,83.40
2018-07-12T22:36:31.819Z,84.50
2018-07-12T22:39:00.838Z,84.50
2018-07-12T22:41:29.967Z,83.50
2018-07-12T22:43:59.039Z,81.10
2018-07-12T22:46:28.180Z,81.60
2018-07-12T22:48:57.327Z,81.30
2018-07-12T22:51:26.423Z,79.70
2018-07-12T22:53:55.518Z,79.40
2018-07-12T22:56:24.645Z,79.20
2018-07-12T22:58:53.719Z,79.30
2018-07-12T23:01:22.854Z,79.40
2018-07-12T23:03:52.004Z,79.40
2018-07-12T23:06:21.077Z,79.00
2018-07-12T23:08:50.158Z,79.00
2018-07-12T23:11:19.318Z,79.00
2018-07-12T23:13:48.698Z,79.20
2018-07-12T23:16:23.983Z,80.50
2018-07-12T23:18:53.053Z,81.00
2018-07-12T23:21:22.255Z,81.80
2018-07-12T23:23:51.300Z,82.00
2018-07-12T23:26:20.458Z,81.70
2018-07-12T23:28:49.571Z,81.30
2018-07-12T23:31:18.758Z,81.20
2018-07-12T23:33:47.855Z,81.00
2018-07-12T23:36:17.059Z,80.20
2018-07-12T23:38:46.169Z,78.90
2018-07-12T23:41:15.247Z,78.50
2018-07-12T23:43:44.346Z,78.80
2018-07-12T23:46:13.510Z,78.80
2018-07-12T23:48:42.569Z,78.40
2018-07-12T23:51:11.667Z,80.00
2018-07-12T23:53:40.814Z,81.60
2018-07-12T23:56:09.959Z,82.70
2018-07-12T23:58:39.033Z,84.10
